Hyderabad, India

5:13 AM IST on January 29, 2015 (GMT +0530)
RAJIV GANDHI IN | Change Station
CLOSE
Current Station
Airport
Location: RAJIV GANDHI IN,
Elevation: 2024 ft
Nearby Weather Stations

Elev 2024 ft 17.24 °N, 78.43 °E | Updated 1 hour ago

Haze
Haze
63 °F
Feels Like 63 °F
N
6
Wind Variable Wind from SE

Today
High -- | Low -- °F
--% Chance of Precip.
Yesterday
High -- | Low -- °F
Precip. -- in
6:48 AM 6:09 PM
Waxing Gibbous, 69% visible
Pressure 29.95 in
Visibility 3.1 miles
Clouds
Dew Point 61 °F
Humidity 94%
Rainfall 0.00 in
Snow Depth Not available.
UV Not available.
Pollen Not available.
Air Quality Not available.
Flu Activity Not available.
METAR VOHS 282210Z 13005KT 5000 HZ NSC 17/16 Q1014 TEMPO 3000

More Conditions Fewer Conditions

Pressure 29.95 in
Visibility 3.1 miles
Clouds
Dew Point 61 °F
Humidity 94%
Rainfall 0.00 in
Snow Depth Not available.
UV Not available.
Pollen Not available.
Air Quality Not available.
Flu Activity Not available.
METAR VOHS 282210Z 13005KT 5000 HZ NSC 17/16 Q1014 TEMPO 3000

More Conditions Fewer Conditions

10-Day Weather Forecast

Almanac

Astronomy

Jan. 29, 2015 Rise Set
Actual Time
Civil Twilight
Nautical Twilight
Astronomical Twilight
Moon
Length of Visible Light
Length of Day
Tomorrow will be .
, % of the Moon is Illuminated

Today's Extremes

Country Highs Country Lows

Community

WunderPhotos

Upload Photos

1,791,298 photos uploaded!

WunderBlogs® & News

Nearby

Air Quality

  Air Quality AQ Index Pollutant
Not available.

Snow Depth

Station Depth Elevation

Earthquake Activity

City Distance Mag. Time & Date
Minimum magnitude displayed is 2.5.

Coastal Water Temperatures

Place Temperature

Nearby Weather Stations